Time;durP1;ratioP1;P1;durP2;ratioP2;P2;SDS_P1;SDS_P2;PMS_P1;PMS_P2;Temp;Humidity;BMP_temperature;BMP_pressure;BME280_temperature;BME280_humidity;BME280_pressure;Samples;Min_cycle;Max_cycle;Signal;HPM_P1;HPM_P2
2024/03/25 00:01:22;;;;;;;8.00;7.00;;;;;;;3.88;80.03;98619.07;102736;1265;106684;-73
2024/03/25 00:03:48;;;;;;;10.00;7.60;;;;;;;3.90;79.85;98618.83;102816;1265;138309;-73
2024/03/25 00:06:15;;;;;;;9.50;7.30;;;;;;;3.91;79.72;98618.45;102782;1265;107107;-74
2024/03/25 00:08:41;;;;;;;10.70;7.60;;;;;;;3.93;79.61;98622.33;102766;1262;138854;-74
2024/03/25 00:11:08;;;;;;;11.90;8.10;;;;;;;3.91;79.72;98619.98;102855;1261;112499;-74
2024/03/25 00:13:33;;;;;;;;;;;;;;;3.93;79.71;98623.02;102830;1265;108938;-75
2024/03/25 00:15:59;;;;;;;10.30;8.20;;;;;;;3.91;79.77;98626.70;102761;1260;125134;-73
2024/03/25 00:18:26;;;;;;;11.50;8.90;;;;;;;3.88;79.75;98628.52;102840;1263;108568;-74
2024/03/25 00:20:52;;;;;;;12.50;8.90;;;;;;;3.86;79.68;98623.93;102639;1261;139020;-73
2024/03/25 00:23:17;;;;;;;;;;;;;;;3.84;80.06;98623.83;102836;1261;112638;-75
2024/03/25 00:25:43;;;;;;;11.50;8.80;;;;;;;3.81;80.11;98619.13;102791;1262;107677;-73
2024/03/25 00:28:10;;;;;;;12.70;9.40;;;;;;;3.78;79.91;98620.60;102764;1265;138353;-74
2024/03/25 00:30:36;;;;;;;13.00;9.40;;;;;;;3.77;79.85;98619.08;102783;1262;108042;-74
2024/03/25 00:33:03;;;;;;;15.00;9.80;;;;;;;3.77;79.91;98615.28;102803;1265;138323;-74
2024/03/25 00:35:29;;;;;;;13.80;9.70;;;;;;;3.78;80.16;98612.70;102850;1265;111941;-73
2024/03/25 00:37:56;;;;;;;14.70;10.30;;;;;;;3.78;80.01;98614.59;102821;1264;107754;-74
2024/03/25 00:40:22;;;;;;;14.40;10.20;;;;;;;3.78;80.17;98611.15;102746;1265;138526;-75
2024/03/25 00:42:48;;;;;;;13.90;9.90;;;;;;;3.76;80.11;98608.95;102855;1262;107667;-73
2024/03/25 00:45:16;;;;;;;15.20;11.00;;;;;;;3.75;79.96;98606.91;102754;1265;138308;-73
2024/03/25 00:47:42;;;;;;;18.10;12.00;;;;;;;3.75;80.12;98606.92;102836;1265;111864;-75
2024/03/25 00:50:10;;;;;;;16.50;11.20;;;;;;;3.74;80.24;98605.42;102762;1265;106880;-75
2024/03/25 00:52:36;;;;;;;14.50;11.80;;;;;;;3.72;80.32;98606.34;102675;1260;138688;-74
2024/03/25 00:55:03;;;;;;;16.50;11.90;;;;;;;3.67;80.39;98601.51;102779;1261;106977;-74
2024/03/25 00:57:30;;;;;;;16.90;11.80;;;;;;;3.64;80.26;98605.72;102654;1265;137761;-74
2024/03/25 00:59:56;;;;;;;18.40;12.60;;;;;;;3.61;80.74;98603.91;102832;1264;111938;-74
2024/03/25 01:02:22;;;;;;;19.30;12.80;;;;;;;3.59;80.82;98598.83;101970;1265;1003593;-75
2024/03/25 01:04:49;;;;;;;19.70;12.90;;;;;;;3.56;81.10;98598.90;102854;1265;99716;-75
2024/03/25 01:07:15;;;;;;;19.60;13.30;;;;;;;3.54;80.94;98598.10;102816;1265;107298;-75
2024/03/25 01:09:42;;;;;;;20.40;13.70;;;;;;;3.53;81.19;98597.63;102739;1264;139322;-75
2024/03/25 01:12:09;;;;;;;18.30;12.60;;;;;;;3.53;81.09;98595.92;102900;1265;111596;-75
2024/03/25 01:14:36;;;;;;;16.80;13.20;;;;;;;3.52;81.23;98594.23;102810;1274;138747;-75
2024/03/25 01:17:02;;;;;;;19.30;14.10;;;;;;;3.50;81.21;98587.92;102168;1261;1003266;-74
2024/03/25 01:19:29;;;;;;;19.10;14.70;;;;;;;3.49;81.57;98585.55;102886;1265;107697;-73
2024/03/25 01:21:55;;;;;;;19.90;15.20;;;;;;;3.47;81.68;98585.44;102738;1264;138485;-75
2024/03/25 01:24:22;;;;;;;22.90;15.10;;;;;;;3.44;81.48;98587.41;102895;1261;112176;-74
2024/03/25 01:26:48;;;;;;;20.80;14.90;;;;;;;3.41;81.47;98578.94;102734;1264;138701;-75
2024/03/25 01:29:15;;;;;;;21.70;16.00;;;;;;;3.41;81.66;98579.78;102858;1265;99253;-75
2024/03/25 01:31:41;;;;;;;22.80;15.90;;;;;;;3.39;81.64;98584.63;102875;1264;107768;-74
2024/03/25 01:34:07;;;;;;;21.70;15.30;;;;;;;3.39;81.73;98583.61;102747;1267;138666;-74
2024/03/25 01:36:35;;;;;;;22.30;15.60;;;;;;;3.39;81.83;98583.45;102872;1262;112642;-74
2024/03/25 01:39:01;;;;;;;22.00;15.30;;;;;;;3.38;81.93;98587.78;102746;1264;139484;-74
2024/03/25 01:41:29;;;;;;;20.80;15.20;;;;;;;3.36;82.00;98587.49;102881;1264;100105;-74
2024/03/25 01:43:55;;;;;;;21.00;15.60;;;;;;;3.34;82.44;98587.20;102806;1264;107647;-74
2024/03/25 01:46:23;;;;;;;23.80;16.50;;;;;;;3.33;82.42;98588.08;102793;1265;138747;-74
2024/03/25 01:48:52;;;;;;;23.30;16.00;;;;;;;3.31;82.48;98595.36;102867;1261;112646;-74
2024/03/25 01:51:21;;;;;;;21.50;15.80;;;;;;;3.27;82.84;98585.18;102753;1265;138521;-74
2024/03/25 01:53:49;;;;;;;21.30;16.20;;;;;;;3.23;82.87;98576.19;102986;1266;99034;-73
2024/03/25 01:56:17;;;;;;;24.30;16.40;;;;;;;3.20;82.91;98578.51;102831;1265;106959;-75
2024/03/25 01:58:44;;;;;;;22.20;16.00;;;;;;;3.18;82.86;98579.95;102888;1266;99165;-75
2024/03/25 02:01:13;;;;;;;21.10;16.40;;;;;;;3.17;82.95;98581.16;102860;1263;112264;-74
2024/03/25 02:03:40;;;;;;;21.90;16.70;;;;;;;3.18;82.94;98577.71;102698;1267;139238;-74
2024/03/25 02:06:13;;;;;;;23.50;16.00;;;;;;;3.18;83.00;98574.95;102845;1265;99708;-74
2024/03/25 02:08:41;;;;;;;23.00;16.40;;;;;;;3.16;82.98;98572.62;102701;1261;138511;-72
2024/03/25 02:11:07;;;;;;;23.40;16.90;;;;;;;3.16;83.12;98575.18;102865;1265;99157;-73
2024/03/25 02:13:35;;;;;;;21.90;16.10;;;;;;;3.16;83.43;98573.31;102868;1265;112714;-73
2024/03/25 02:16:01;;;;;;;22.50;16.60;;;;;;;3.13;83.21;98571.33;103234;1260;139100;-73
2024/03/25 02:18:28;;;;;;;24.40;17.50;;;;;;;3.12;83.14;98572.73;103500;1264;99018;-73
2024/03/25 02:20:54;;;;;;;24.90;18.40;;;;;;;3.10;83.21;98571.27;103236;1261;137531;-73
2024/03/25 02:23:21;;;;;;;25.90;17.60;;;;;;;3.07;83.38;98573.06;102512;1266;1003111;-74
2024/03/25 02:25:51;;;;;;;24.20;17.50;;;;;;;3.05;83.41;98574.48;102997;1264;113150;-75
2024/03/25 02:28:18;;;;;;;23.10;17.50;;;;;;;3.02;83.36;98576.77;102787;1264;138581;-74
2024/03/25 02:30:44;;;;;;;23.30;18.00;;;;;;;3.00;83.23;98575.31;102935;1265;99151;-75
2024/03/25 02:33:11;;;;;;;22.30;17.00;;;;;;;2.98;83.44;98580.34;102807;1264;138455;-74
2024/03/25 02:35:38;;;;;;;25.70;17.30;;;;;;;2.95;83.68;98579.41;102933;1261;99161;-75
2024/03/25 02:38:06;;;;;;;24.80;17.00;;;;;;;2.92;83.74;98580.52;102982;1263;112147;-74
2024/03/25 02:40:33;;;;;;;25.90;18.00;;;;;;;2.88;83.86;98576.70;102953;1263;137433;-75
2024/03/25 02:43:00;;;;;;;23.80;17.40;;;;;;;2.86;83.97;98577.57;102969;1261;99152;-74
2024/03/25 02:45:26;;;;;;;23.90;17.10;;;;;;;2.83;84.15;98579.38;102883;1260;138555;-74
2024/03/25 02:47:53;;;;;;;25.00;17.20;;;;;;;2.83;84.34;98577.67;102863;1261;99325;-74
2024/03/25 02:50:20;;;;;;;24.10;18.60;;;;;;;2.82;84.42;98576.33;102915;1264;111662;-74
2024/03/25 02:52:46;;;;;;;25.30;16.70;;;;;;;2.83;84.43;98581.96;102878;1260;107639;-74
2024/03/25 02:55:12;;;;;;;23.00;17.50;;;;;;;2.83;84.46;98580.40;102904;1261;99676;-73
2024/03/25 02:57:39;;;;;;;25.00;16.80;;;;;;;2.84;84.68;98583.47;102761;1264;139759;-74
2024/03/25 03:00:08;;;;;;;24.10;16.90;;;;;;;2.84;84.67;98584.15;102747;1260;99200;-73
2024/03/25 03:02:35;;;;;;;23.50;17.20;;;;;;;2.84;84.59;98586.71;102821;1263;139340;-73
2024/03/25 03:05:03;;;;;;;24.70;17.30;;;;;;;2.84;84.74;98584.84;102787;1263;107630;-73
2024/03/25 03:07:30;;;;;;;23.60;16.60;;;;;;;2.84;84.77;98584.50;102878;1260;99091;-73
2024/03/25 03:09:56;;;;;;;26.20;17.80;;;;;;;2.83;84.87;98586.05;102745;1263;138365;-73
2024/03/25 03:12:23;;;;;;;24.20;18.10;;;;;;;2.84;84.74;98585.54;102848;1263;99171;-73
2024/03/25 03:14:49;;;;;;;23.90;17.20;;;;;;;2.84;84.86;98592.58;102759;1261;139727;-73
2024/03/25 03:17:15;;;;;;;22.80;17.40;;;;;;;2.84;84.95;98589.64;102822;1260;108231;-73
2024/03/25 03:19:42;;;;;;;25.30;17.30;;;;;;;2.83;85.21;98593.45;102867;1261;99367;-73
2024/03/25 03:22:09;;;;;;;26.40;18.00;;;;;;;2.83;85.13;98594.15;102729;1260;138630;-74
2024/03/25 03:24:35;;;;;;;23.30;18.50;;;;;;;2.82;85.31;98598.11;101376;1260;1015439;-73
2024/03/25 03:27:02;;;;;;;22.70;17.10;;;;;;;2.81;85.32;98595.90;102792;1260;138751;-74
2024/03/25 03:29:29;;;;;;;25.00;17.00;;;;;;;2.81;85.57;98601.42;102815;1260;108651;-73
2024/03/25 03:31:56;;;;;;;24.80;17.80;;;;;;;2.80;85.52;98600.42;102755;1260;99930;-73
2024/03/25 03:34:23;;;;;;;24.30;17.60;;;;;;;2.79;85.59;98597.36;102698;1260;140537;-73
2024/03/25 03:36:49;;;;;;;26.60;18.80;;;;;;;2.79;85.76;98601.13;102831;1263;99536;-73
2024/03/25 03:39:17;;;;;;;26.70;18.50;;;;;;;2.79;85.89;98600.97;102718;1261;139859;-73
2024/03/25 03:41:44;;;;;;;25.90;18.10;;;;;;;2.78;85.70;98605.27;102836;1260;107695;-74
2024/03/25 03:44:12;;;;;;;25.20;17.30;;;;;;;2.78;85.87;98608.36;102064;1260;1002960;-74
2024/03/25 03:46:38;;;;;;;23.80;17.70;;;;;;;2.78;86.09;98609.21;102751;1260;140334;-74
2024/03/25 03:49:04;;;;;;;27.70;18.20;;;;;;;2.78;86.17;98623.48;102886;1260;99186;-73
2024/03/25 03:51:31;;;;;;;26.50;18.00;;;;;;;2.77;86.25;98622.13;102780;1261;138314;-73
2024/03/25 03:53:58;;;;;;;26.20;18.30;;;;;;;2.74;86.24;98620.30;102799;1263;107792;-74
2024/03/25 03:56:25;;;;;;;24.00;17.50;;;;;;;2.73;86.41;98624.46;102847;1263;139589;-72
2024/03/25 03:58:51;;;;;;;23.10;17.30;;;;;;;2.72;86.39;98627.92;102867;1260;108357;-72
2024/03/25 04:01:19;;;;;;;26.30;18.60;;;;;;;2.70;86.45;98628.65;102870;1260;99187;-73
2024/03/25 04:03:45;;;;;;;25.90;17.70;;;;;;;2.69;86.36;98627.13;102934;1260;138375;-74
2024/03/25 04:06:13;;;;;;;24.00;17.90;;;;;;;2.69;86.65;98622.16;102875;1260;107975;-75
2024/03/25 04:08:40;;;;;;;25.80;18.60;;;;;;;2.68;86.46;98630.58;102084;1261;1002344;-73
2024/03/25 04:11:07;;;;;;;24.70;18.90;;;;;;;2.68;86.90;98631.79;102811;1260;107750;-74
2024/03/25 04:13:34;;;;;;;26.20;18.40;;;;;;;2.66;86.87;98628.92;102803;1266;99194;-73
2024/03/25 04:16:05;;;;;;;26.50;18.40;;;;;;;2.65;86.90;98625.70;102939;1260;139442;-73
2024/03/25 04:18:32;;;;;;;27.70;19.10;;;;;;;2.63;86.84;98624.35;102808;1260;106695;-74
2024/03/25 04:20:59;;;;;;;24.10;18.60;;;;;;;2.62;87.24;98625.61;102781;1264;139750;-73
2024/03/25 04:23:25;;;;;;;27.20;19.30;;;;;;;2.60;87.39;98627.55;102813;1260;107190;-74
2024/03/25 04:25:52;;;;;;;25.10;18.50;;;;;;;2.57;87.32;98628.98;102746;1260;99100;-74
2024/03/25 04:28:20;;;;;;;26.50;19.00;;;;;;;2.56;87.59;98626.11;102691;1260;139348;-73
2024/03/25 04:30:53;;;;;;;26.40;19.10;;;;;;;2.55;87.44;98629.91;102100;1260;1018501;-73
2024/03/25 04:33:19;;;;;;;27.50;18.70;;;;;;;2.55;87.71;98626.83;102727;1263;139460;-74
2024/03/25 04:35:46;;;;;;;31.00;19.20;;;;;;;2.53;87.69;98631.35;102797;1263;110284;-74
2024/03/25 04:38:13;;;;;;;27.20;19.40;;;;;;;2.52;87.89;98631.88;102819;1260;100362;-74
2024/03/25 04:40:40;;;;;;;25.50;19.10;;;;;;;2.51;87.90;98632.05;102743;1263;138807;-74
2024/03/25 04:43:06;;;;;;;27.80;20.20;;;;;;;2.49;88.13;98630.89;102745;1260;108542;-73
2024/03/25 04:45:33;;;;;;;29.50;20.70;;;;;;;2.48;88.01;98630.40;102730;1260;140502;-73
2024/03/25 04:47:59;;;;;;;29.20;18.80;;;;;;;2.49;87.93;98632.11;102854;1260;107213;-74
2024/03/25 04:50:26;;;;;;;28.90;19.90;;;;;;;2.50;88.04;98636.01;102684;1260;138716;-73
2024/03/25 04:52:52;;;;;;;28.10;20.30;;;;;;;2.51;88.01;98634.80;102831;1261;112632;-74
2024/03/25 04:55:19;;;;;;;28.50;19.70;;;;;;;2.52;88.29;98636.17;102798;1263;106878;-72
2024/03/25 04:57:46;;;;;;;27.20;19.20;;;;;;;2.53;88.41;98638.90;103284;1260;139405;-75
2024/03/25 05:00:14;;;;;;;27.20;20.10;;;;;;;2.53;88.34;98636.30;102829;1260;107220;-74
2024/03/25 05:02:41;;;;;;;28.90;19.50;;;;;;;2.54;88.49;98637.30;102839;1260;139852;-73
2024/03/25 05:05:09;;;;;;;27.00;19.10;;;;;;;2.54;88.55;98636.12;103154;1263;112473;-74
2024/03/25 05:07:36;;;;;;;26.80;18.70;;;;;;;2.56;88.40;98637.44;102073;1260;1003473;-73
2024/03/25 05:10:03;;;;;;;30.90;19.70;;;;;;;2.57;88.58;98637.42;102731;1260;138746;-75
2024/03/25 05:12:31;;;;;;;26.70;18.50;;;;;;;2.58;88.55;98638.41;102680;1260;107800;-72
2024/03/25 05:14:57;;;;;;;27.40;18.30;;;;;;;2.61;88.41;98640.05;102732;1261;139114;-73
2024/03/25 05:17:24;;;;;;;27.40;19.70;;;;;;;2.66;88.41;98646.23;102659;1263;130232;-77
2024/03/25 05:19:51;;;;;;;28.30;18.90;;;;;;;2.73;88.39;98644.38;102740;1260;107118;-77
2024/03/25 05:22:17;;;;;;;24.30;18.60;;;;;;;2.80;87.94;98644.35;102734;1260;138520;-75
2024/03/25 05:24:44;;;;;;;26.70;18.00;;;;;;;2.86;87.86;98643.16;102846;1261;106886;-76
2024/03/25 05:27:11;;;;;;;27.30;18.20;;;;;;;2.95;87.79;98642.40;102686;1263;140880;-75
2024/03/25 05:29:37;;;;;;;27.90;18.10;;;;;;;3.06;87.73;98639.35;102797;1261;112069;-76
2024/03/25 05:32:05;;;;;;;27.60;18.10;;;;;;;3.18;87.56;98640.90;102804;1260;108631;-76
2024/03/25 05:34:32;;;;;;;23.50;16.90;;;;;;;3.34;87.38;98643.89;103035;1260;138971;-75
2024/03/25 05:36:58;;;;;;;24.40;16.90;;;;;;;3.62;87.16;98646.52;102818;1261;107215;-76
2024/03/25 05:39:25;;;;;;;22.70;15.70;;;;;;;4.09;86.94;98644.20;102752;1263;138644;-76
2024/03/25 05:41:51;;;;;;;19.50;14.30;;;;;;;5.80;86.25;98640.21;102857;1260;111414;-75
2024/03/25 05:44:18;;;;;;;19.00;12.90;;;;;;;7.90;82.08;98635.41;102822;1267;106878;-72
2024/03/25 05:46:44;;;;;;;17.70;13.00;;;;;;;9.94;78.25;98628.98;103017;1263;99213;-74
2024/03/25 05:49:09;;;;;;;;;;;;;;;11.30;71.44;98626.54;102812;1263;107772;-74
2024/03/25 05:51:36;;;;;;;15.80;11.80;;;;;;;10.75;66.53;98628.58;102722;1263;126075;-73
2024/03/25 05:54:03;;;;;;;17.20;12.20;;;;;;;9.73;66.25;98635.91;102795;1263;112723;-74
2024/03/25 05:56:31;;;;;;;18.20;11.80;;;;;;;8.88;67.16;98639.89;102666;1260;141025;-73
2024/03/25 05:58:57;;;;;;;20.70;12.90;;;;;;;8.27;68.46;98644.83;102882;1260;99692;-73
2024/03/25 06:01:24;;;;;;;23.60;13.10;;;;;;;7.82;69.20;98650.05;102775;1262;106049;-73
2024/03/25 06:03:50;;;;;;;20.70;12.80;;;;;;;7.47;69.79;98651.14;102710;1260;139689;-72
2024/03/25 06:06:17;;;;;;;19.50;12.90;;;;;;;7.23;70.59;98654.92;102815;1259;112673;-73
2024/03/25 06:08:44;;;;;;;16.10;12.50;;;;;;;7.07;71.23;98657.38;102691;1263;138744;-74
2024/03/25 06:11:10;;;;;;;18.30;12.60;;;;;;;6.88;71.11;98662.00;102877;1261;100865;-73
2024/03/25 06:13:37;;;;;;;17.40;12.20;;;;;;;6.66;71.71;98663.80;102847;1261;106948;-73
2024/03/25 06:16:02;;;;;;;;;;;;;;;6.55;72.20;98658.74;102739;1260;138690;-72
2024/03/25 06:18:28;;;;;;;23.30;11.90;;;;;;;6.52;72.74;98661.79;102788;1264;112615;-73
2024/03/25 06:20:55;;;;;;;16.80;10.90;;;;;;;6.85;73.35;98663.52;102669;1263;139401;-73
2024/03/25 06:23:26;;;;;;;15.70;10.80;;;;;;;7.65;71.94;98661.01;102878;1261;99151;-73
2024/03/25 06:25:54;;;;;;;16.10;11.20;;;;;;;7.58;70.66;98666.38;102811;1260;107652;-73
2024/03/25 06:28:21;;;;;;;16.90;10.80;;;;;;;7.31;70.92;98663.41;102611;1260;138552;-73
2024/03/25 06:36:18;;;;;;;14.80;11.10;;;;;;;7.38;71.30;98664.16;102762;1260;99317;-76
2024/03/25 06:38:44;;;;;;;18.50;11.40;;;;;;;7.63;71.06;98671.83;102639;1264;139115;-74
2024/03/25 06:41:11;;;;;;;15.40;9.40;;;;;;;8.11;70.55;98674.32;102774;1264;99229;-74
2024/03/25 06:43:37;;;;;;;12.60;9.20;;;;;;;9.56;70.20;98669.75;102798;1260;112143;-74
2024/03/25 06:46:04;;;;;;;12.20;9.30;;;;;;;11.72;67.05;98671.05;102708;1260;140557;-75
2024/03/25 06:48:31;;;;;;;14.80;9.30;;;;;;;13.43;64.07;98663.95;102853;1259;99684;-74
2024/03/25 06:50:59;;;;;;;12.90;8.90;;;;;;;15.19;62.39;98656.39;102717;1260;138061;-75
2024/03/25 06:53:26;;;;;;;11.50;8.10;;;;;;;16.79;56.27;98655.23;102802;1260;99281;-76
2024/03/25 06:55:57;;;;;;;12.70;8.90;;;;;;;18.05;54.10;98648.30;102854;1260;112678;-76
2024/03/25 06:58:25;;;;;;;10.90;8.00;;;;;;;19.25;50.74;98648.31;102817;1263;139235;-75
2024/03/25 07:00:52;;;;;;;9.60;7.60;;;;;;;20.05;48.11;98646.39;102933;1260;99359;-75
2024/03/25 07:03:19;;;;;;;10.10;7.90;;;;;;;20.69;45.48;98644.52;102724;1260;137718;-73
2024/03/25 07:05:49;;;;;;;10.50;8.50;;;;;;;21.43;45.75;98631.94;102657;1261;99069;-75
2024/03/25 07:08:16;;;;;;;12.10;8.10;;;;;;;22.15;42.54;98637.34;102795;1264;113669;-74
2024/03/25 07:10:43;;;;;;;11.00;7.90;;;;;;;22.62;42.38;98632.66;102698;1264;108046;-75
2024/03/25 07:13:10;;;;;;;11.50;7.90;;;;;;;23.24;41.85;98631.77;102757;1264;99064;-74
2024/03/25 07:15:36;;;;;;;9.40;7.80;;;;;;;23.84;39.50;98636.40;102663;1260;137858;-74
2024/03/25 07:18:03;;;;;;;11.40;7.60;;;;;;;24.22;38.61;98637.50;102806;1264;99176;-74
2024/03/25 07:20:30;;;;;;;9.70;7.60;;;;;;;24.52;39.16;98639.16;102720;1264;138031;-74
2024/03/25 07:22:56;;;;;;;10.80;7.50;;;;;;;25.11;39.25;98635.69;102797;1265;107126;-75
2024/03/25 07:25:23;;;;;;;10.10;7.40;;;;;;;25.83;38.93;98634.67;102831;1264;99283;-74
2024/03/25 07:27:50;;;;;;;11.50;7.80;;;;;;;26.29;37.92;98637.61;102689;1260;137858;-74
2024/03/25 07:30:17;;;;;;;11.30;7.30;;;;;;;26.32;37.38;98642.76;102804;1260;99228;-74
2024/03/25 07:32:45;;;;;;;11.20;6.80;;;;;;;25.97;36.78;98646.20;102716;1260;138000;-74
2024/03/25 07:35:11;;;;;;;8.70;6.90;;;;;;;25.60;36.85;98644.98;102794;1260;107640;-74
2024/03/25 07:37:38;;;;;;;10.60;7.20;;;;;;;26.03;37.03;98647.55;102855;1264;99198;-74
2024/03/25 07:40:06;;;;;;;9.10;7.00;;;;;;;26.44;36.29;98648.90;102751;1260;138037;-74
2024/03/25 07:42:33;;;;;;;11.90;7.40;;;;;;;26.80;35.89;98649.98;102985;1260;99188;-73
2024/03/25 07:45:00;;;;;;;8.60;6.80;;;;;;;26.25;34.32;98648.06;102791;1263;138068;-74
2024/03/25 07:47:26;;;;;;;11.00;7.00;;;;;;;25.73;33.27;98650.55;102858;1260;107595;-77
2024/03/25 07:49:53;;;;;;;11.40;7.50;;;;;;;25.72;33.94;98650.92;102956;1260;99256;-76
2024/03/25 07:52:19;;;;;;;9.80;6.70;;;;;;;26.08;34.07;98656.90;102905;1263;137964;-76
2024/03/25 07:54:45;;;;;;;9.80;6.50;;;;;;;26.87;34.98;98655.34;103660;1261;97120;-75
2024/03/25 07:57:12;;;;;;;11.50;7.20;;;;;;;27.73;34.16;98655.20;103507;1260;136739;-76
2024/03/25 07:59:39;;;;;;;12.20;6.90;;;;;;;28.21;33.67;98654.65;103418;1260;105557;-77
2024/03/25 08:02:06;;;;;;;10.80;7.60;;;;;;;28.57;32.88;98654.13;102937;1261;99172;-76
2024/03/25 08:04:32;;;;;;;10.90;7.30;;;;;;;28.65;31.13;98649.31;102638;1260;137826;-74
2024/03/25 08:06:59;;;;;;;16.40;7.20;;;;;;;28.66;30.26;98652.23;102857;1263;99160;-77
2024/03/25 08:09:25;;;;;;;9.30;6.70;;;;;;;28.15;29.19;98655.21;102752;1261;139001;-85
2024/03/25 08:11:52;;;;;;;9.40;6.10;;;;;;;27.09;29.00;98652.14;102841;1260;107678;-73
2024/03/25 08:14:19;;;;;;;6.60;5.10;;;;;;;25.44;29.71;98653.98;102800;1260;99174;-72
2024/03/25 08:16:46;;;;;;;6.80;5.30;;;;;;;23.95;31.04;98663.38;102876;1262;108679;-73
2024/03/25 08:19:12;;;;;;;6.90;5.00;;;;;;;22.87;32.12;98659.77;102854;1260;100109;-71
2024/03/25 08:21:38;;;;;;;8.00;6.00;;;;;;;22.57;32.96;98668.29;102722;1261;137905;-73
2024/03/25 08:24:06;;;;;;;8.50;5.10;;;;;;;23.09;32.71;98662.69;102810;1262;107845;-74
2024/03/25 08:26:32;;;;;;;7.20;5.60;;;;;;;23.91;32.86;98664.30;102730;1260;138158;-73
2024/03/25 08:28:59;;;;;;;7.10;5.50;;;;;;;24.83;32.84;98663.10;102839;1263;109304;-75
2024/03/25 08:31:26;;;;;;;11.00;5.90;;;;;;;25.62;32.07;98664.30;102821;1260;99156;-74
2024/03/25 08:33:52;;;;;;;8.70;5.90;;;;;;;26.02;31.37;98653.64;102753;1260;138018;-74
2024/03/25 08:36:19;;;;;;;8.20;6.00;;;;;;;26.43;31.42;98658.45;102789;1263;107649;-77
2024/03/25 08:38:45;;;;;;;5.70;5.00;;;;;;;26.64;31.32;98660.92;102716;1262;138177;-77
2024/03/25 08:41:12;;;;;;;6.80;4.50;;;;;;;26.76;30.79;98664.79;102794;1260;107363;-77
2024/03/25 08:43:38;;;;;;;5.10;4.20;;;;;;;26.30;29.84;98669.20;102820;1261;99174;-78
2024/03/25 08:46:05;;;;;;;6.30;4.50;;;;;;;25.79;30.15;98668.30;102733;1260;138111;-72
2024/03/25 08:48:31;;;;;;;9.80;5.10;;;;;;;25.67;30.50;98667.80;102837;1261;107646;-73
2024/03/25 08:50:58;;;;;;;11.20;5.50;;;;;;;25.47;30.48;98670.21;102772;1260;138111;-73
2024/03/25 08:53:25;;;;;;;6.60;5.10;;;;;;;25.19;30.40;98669.77;102816;1260;107004;-73
2024/03/25 08:55:51;;;;;;;7.00;5.30;;;;;;;24.84;30.64;98673.83;102833;1261;99169;-74
2024/03/25 08:58:18;;;;;;;8.50;5.60;;;;;;;24.87;30.71;98676.21;102688;1261;137674;-74
2024/03/25 09:00:45;;;;;;;8.40;5.10;;;;;;;24.79;30.49;98676.53;102836;1260;107947;-73
2024/03/25 09:03:11;;;;;;;6.90;5.30;;;;;;;24.66;30.65;98673.89;102671;1260;138046;-72
2024/03/25 09:05:38;;;;;;;9.70;5.50;;;;;;;24.93;31.24;98678.27;102763;1260;107231;-71
2024/03/25 09:08:11;;;;;;;9.20;5.50;;;;;;;25.30;31.07;98673.06;102829;1264;99887;-71
2024/03/25 09:13:23;;;;;;;8.60;5.00;;;;;;;26.24;29.93;98669.55;102805;1261;107514;-72
2024/03/25 09:15:50;;;;;;;9.70;5.80;;;;;;;26.79;30.39;98669.75;102725;1263;139067;-71
2024/03/25 09:18:19;;;;;;;8.70;5.20;;;;;;;27.22;28.97;98676.30;102892;1261;108304;-75
2024/03/25 09:20:46;;;;;;;8.90;5.10;;;;;;;27.05;28.42;98673.47;102659;1263;138230;-74
2024/03/25 09:23:13;;;;;;;6.30;5.20;;;;;;;26.50;27.59;98680.27;102846;1263;113452;-74
2024/03/25 09:25:39;;;;;;;8.40;5.30;;;;;;;25.38;27.19;98687.58;102792;1261;108624;-76
2024/03/25 09:28:07;;;;;;;15.00;5.30;;;;;;;24.25;28.39;98687.41;102812;1259;137891;-77
2024/03/25 09:30:34;;;;;;;9.20;5.30;;;;;;;23.60;29.11;98684.56;102815;1260;107765;-76
2024/03/25 09:33:00;;;;;;;6.90;5.50;;;;;;;23.54;29.85;98689.89;102728;1261;138042;-75
2024/03/25 09:35:27;;;;;;;7.00;5.20;;;;;;;23.60;30.05;98686.19;102862;1260;111764;-79
2024/03/25 09:37:53;;;;;;;10.30;5.10;;;;;;;23.24;30.41;98682.64;102881;1263;107627;-81
2024/03/25 09:40:22;;;;;;;7.30;5.20;;;;;;;23.07;30.36;98682.91;102777;1263;137990;-81
2024/03/25 09:42:56;;;;;;;6.50;5.50;;;;;;;23.03;31.23;98686.48;102906;1260;107490;-79
2024/03/25 09:45:25;;;;;;;8.40;5.60;;;;;;;22.94;31.23;98683.10;103047;1259;137977;-74
2024/03/25 09:47:54;;;;;;;8.10;5.40;;;;;;;22.40;31.50;98682.84;102918;1261;112724;-78
2024/03/25 09:50:20;;;;;;;7.80;5.10;;;;;;;21.76;31.76;98687.99;102566;1262;138183;-78
2024/03/25 09:52:47;;;;;;;6.90;5.30;;;;;;;21.00;31.98;98690.34;102764;1267;99077;-76
2024/03/25 09:55:16;;;;;;;8.50;5.30;;;;;;;20.24;32.37;98699.79;102968;1262;107758;-82
2024/03/25 09:57:43;;;;;;;7.80;4.80;;;;;;;19.56;32.95;98698.54;102687;1262;137053;-77
2024/03/25 10:00:11;;;;;;;7.50;4.50;;;;;;;18.90;33.39;98701.40;102821;1260;112015;-83
2024/03/25 10:02:39;;;;;;;7.10;5.40;;;;;;;18.09;33.47;98699.00;102717;1267;137854;-83
2024/03/25 10:05:07;;;;;;;10.10;5.80;;;;;;;17.35;34.34;98702.40;102803;1262;99184;-84
2024/03/25 10:07:34;;;;;;;21.60;6.70;;;;;;;16.72;35.24;98708.50;102773;1262;107582;-83
2024/03/25 10:10:05;;;;;;;7.30;5.40;;;;;;;16.30;36.29;98712.73;102718;1262;138308;-82
2024/03/25 10:12:31;;;;;;;19.20;6.70;;;;;;;16.74;37.56;98711.10;102814;1262;112987;-83
2024/03/25 10:14:58;;;;;;;9.50;5.70;;;;;;;17.66;37.20;98702.02;102725;1262;139805;-84
2024/03/25 10:17:25;;;;;;;7.50;5.40;;;;;;;18.36;36.44;98700.15;102763;1265;99532;-82
2024/03/25 10:19:51;;;;;;;17.80;6.30;;;;;;;18.97;36.20;98706.10;102706;1262;137799;-84
2024/03/25 10:22:18;;;;;;;14.50;6.60;;;;;;;19.45;35.66;98702.67;102717;1265;99180;-77
2024/03/25 10:24:45;;;;;;;7.60;4.80;;;;;;;19.74;35.33;98704.95;102793;1261;112653;-79
2024/03/25 10:27:20;;;;;;;6.80;4.90;;;;;;;19.81;34.87;98708.27;102653;1262;138938;-75
2024/03/25 10:29:47;;;;;;;7.60;4.50;;;;;;;19.78;34.17;98712.48;102812;1262;99188;-69
2024/03/25 10:32:15;;;;;;;5.10;4.20;;;;;;;19.68;34.60;98711.28;102897;1262;137838;-68
2024/03/25 10:34:42;;;;;;;6.00;3.70;;;;;;;18.96;32.70;98708.23;102797;1262;99210;-69
2024/03/25 10:37:15;;;;;;;6.20;3.80;;;;;;;18.12;34.06;98708.70;103012;1262;112598;-70
2024/03/25 10:39:48;;;;;;;4.20;3.40;;;;;;;17.49;34.00;98713.33;102710;1265;138596;-70
2024/03/25 10:42:19;;;;;;;4.50;3.20;;;;;;;16.61;34.57;98721.15;102982;1266;99611;-70
2024/03/25 10:44:48;;;;;;;4.70;3.20;;;;;;;15.97;35.06;98724.88;102799;1262;137721;-77
2024/03/25 10:47:18;;;;;;;5.70;2.80;;;;;;;15.41;35.28;98717.58;102811;1260;99290;-75
2024/03/25 10:49:52;;;;;;;4.30;3.00;;;;;;;14.94;36.30;98720.46;102775;1260;112185;-76
2024/03/25 10:52:21;;;;;;;5.20;3.20;;;;;;;14.67;37.14;98725.63;102824;1260;107686;-73
2024/03/25 10:54:50;;;;;;;4.80;3.90;;;;;;;14.44;37.75;98727.63;102804;1265;99186;-73
2024/03/25 10:57:17;;;;;;;6.80;4.50;;;;;;;14.17;38.39;98725.15;102642;1260;138230;-74
2024/03/25 10:59:46;;;;;;;5.20;4.30;;;;;;;13.84;39.00;98729.08;102779;1262;99155;-74
2024/03/25 11:02:13;;;;;;;5.80;4.50;;;;;;;13.57;39.67;98730.73;101931;1262;1002929;-76
2024/03/25 11:04:41;;;;;;;5.60;3.90;;;;;;;13.35;40.21;98731.36;102748;1262;105626;-75
2024/03/25 11:07:12;;;;;;;4.90;4.00;;;;;;;13.11;40.79;98732.64;102773;1262;99294;-75
2024/03/25 11:09:39;;;;;;;4.50;3.90;;;;;;;12.87;40.91;98737.71;102675;1262;137963;-75
2024/03/25 11:12:06;;;;;;;5.90;3.80;;;;;;;12.63;41.25;98736.30;102793;1267;99158;-75
2024/03/25 11:14:34;;;;;;;6.50;4.20;;;;;;;12.42;41.53;98737.80;102734;1265;138625;-82
2024/03/25 11:17:01;;;;;;;4.50;3.40;;;;;;;12.25;41.84;98736.80;102806;1262;107691;-79
2024/03/25 11:19:30;;;;;;;7.00;4.00;;;;;;;12.06;42.24;98733.82;102865;1264;99821;-78
2024/03/25 11:22:07;;;;;;;5.10;3.80;;;;;;;11.92;42.90;98732.44;102667;1262;137722;-77